createdAt,value
2018-07-13T00:02:19.314Z,21.30
2018-07-13T00:04:47.524Z,21.27
2018-07-13T00:07:15.846Z,20.60
2018-07-13T00:09:44.042Z,22.80
2018-07-13T00:12:12.233Z,22.20
2018-07-13T00:14:50.365Z,24.37
2018-07-13T00:17:18.549Z,23.37
2018-07-13T00:19:46.784Z,22.43
2018-07-13T00:22:14.974Z,18.90
2018-07-13T00:24:43.346Z,21.00
2018-07-13T00:27:11.542Z,23.87
2018-07-13T00:29:39.762Z,19.57
2018-07-13T00:32:07.954Z,20.53
2018-07-13T00:34:36.162Z,17.40
2018-07-13T00:37:04.356Z,15.07
2018-07-13T00:39:32.551Z,18.50
2018-07-13T00:42:00.743Z,16.50
2018-07-13T00:44:29.001Z,18.77
2018-07-13T00:46:57.233Z,15.70
2018-07-13T00:49:25.436Z,13.50
2018-07-13T00:51:53.621Z,14.00
2018-07-13T00:54:21.837Z,16.03
2018-07-13T00:56:49.995Z,14.60
2018-07-13T00:59:18.142Z,12.37
2018-07-13T01:01:46.398Z,15.80
2018-07-13T01:04:14.548Z,14.07
2018-07-13T01:06:42.722Z,23.47
2018-07-13T01:09:10.878Z,11.80
2018-07-13T01:11:39.014Z,11.40
2018-07-13T01:14:07.178Z,13.13
2018-07-13T01:16:35.346Z,13.27
2018-07-13T01:19:03.494Z,17.90
2018-07-13T01:21:31.625Z,12.63
2018-07-13T01:23:59.801Z,15.93
2018-07-13T01:26:27.962Z,13.70
2018-07-13T01:28:56.099Z,14.83
2018-07-13T01:31:24.244Z,17.13
2018-07-13T01:33:52.373Z,16.30
2018-07-13T01:36:20.541Z,11.80
2018-07-13T01:38:48.772Z,16.77
2018-07-13T01:41:17.039Z,14.67
2018-07-13T01:43:45.169Z,16.33
2018-07-13T01:46:13.317Z,14.90
2018-07-13T01:48:41.473Z,17.00
2018-07-13T01:51:09.631Z,12.40
2018-07-13T01:53:37.766Z,14.23
2018-07-13T01:56:05.992Z,14.13
2018-07-13T01:58:34.187Z,10.23
2018-07-13T02:01:02.379Z,13.40
2018-07-13T02:03:30.569Z,12.33
2018-07-13T02:05:58.781Z,14.50
2018-07-13T02:08:26.969Z,10.70
2018-07-13T02:10:55.167Z,12.53
2018-07-13T02:13:23.358Z,11.20
2018-07-13T02:15:51.642Z,12.77
2018-07-13T02:18:19.902Z,13.07
2018-07-13T02:20:48.102Z,18.33
2018-07-13T02:23:16.302Z,17.10
2018-07-13T02:25:44.574Z,13.80
2018-07-13T02:28:12.833Z,15.23
2018-07-13T02:30:41.037Z,15.00
2018-07-13T02:33:09.270Z,12.40
2018-07-13T02:35:37.227Z,11.70
2018-07-13T02:38:05.586Z,13.30
2018-07-13T02:40:33.795Z,15.37
2018-07-13T02:43:01.995Z,12.87
2018-07-13T02:45:30.190Z,15.07
2018-07-13T02:47:58.377Z,16.60
2018-07-13T02:50:26.568Z,12.67
2018-07-13T02:52:54.754Z,11.63
2018-07-13T02:55:22.911Z,12.33
2018-07-13T02:57:51.118Z,12.23
2018-07-13T03:00:19.191Z,12.83
2018-07-13T03:02:47.404Z,10.07
2018-07-13T03:05:15.542Z,14.67
2018-07-13T03:07:43.674Z,9.50
2018-07-13T03:10:11.814Z,17.70
2018-07-13T03:12:39.974Z,12.33
2018-07-13T03:15:08.127Z,10.50
2018-07-13T03:17:36.298Z,11.60
2018-07-13T03:20:04.458Z,18.20
2018-07-13T03:22:32.600Z,19.40
2018-07-13T03:25:00.734Z,14.20
2018-07-13T03:27:28.882Z,16.67
2018-07-13T03:29:57.018Z,17.93
2018-07-13T03:32:25.150Z,17.83
2018-07-13T03:34:53.290Z,16.27
2018-07-13T03:37:21.419Z,16.37
2018-07-13T03:39:49.534Z,19.53
2018-07-13T03:42:17.673Z,18.03
2018-07-13T03:44:45.818Z,15.30
2018-07-13T03:47:13.954Z,18.33
2018-07-13T03:49:42.076Z,12.20
2018-07-13T03:52:09.977Z,16.40
2018-07-13T03:54:38.129Z,16.10
2018-07-13T03:57:06.278Z,15.63
2018-07-13T03:59:34.426Z,16.70
2018-07-13T04:02:02.689Z,18.80
2018-07-13T04:04:30.818Z,17.07
2018-07-13T04:06:58.960Z,14.73
2018-07-13T04:09:27.094Z,17.83
2018-07-13T04:11:55.246Z,18.00
2018-07-13T04:14:23.389Z,15.93
2018-07-13T04:16:51.527Z,18.20
2018-07-13T04:19:19.662Z,26.50
2018-07-13T04:21:47.829Z,14.73
2018-07-13T04:24:15.974Z,18.70
2018-07-13T04:26:44.991Z,25.80
2018-07-13T04:29:13.125Z,15.17
2018-07-13T04:31:41.210Z,17.47
2018-07-13T04:34:09.429Z,20.03
2018-07-13T04:36:37.534Z,16.17
2018-07-13T04:39:08.386Z,15.07
2018-07-13T04:41:36.541Z,22.13
2018-07-13T04:44:04.683Z,19.80
2018-07-13T04:46:32.826Z,19.13
2018-07-13T04:49:00.738Z,21.70
2018-07-13T04:51:29.003Z,18.73
2018-07-13T04:53:57.137Z,20.73
2018-07-13T04:56:25.365Z,23.20
2018-07-13T04:58:53.510Z,20.30
2018-07-13T05:01:21.663Z,21.37
2018-07-13T05:03:49.823Z,19.50
2018-07-13T05:06:18.034Z,18.70
2018-07-13T05:08:46.159Z,16.90
2018-07-13T05:11:14.322Z,16.90
2018-07-13T05:13:42.452Z,18.40
2018-07-13T05:16:10.651Z,19.67
2018-07-13T05:18:38.586Z,19.90
2018-07-13T05:21:06.750Z,23.17
2018-07-13T05:23:34.909Z,21.37
2018-07-13T05:26:03.113Z,22.03
2018-07-13T05:28:31.298Z,28.43
2018-07-13T05:30:59.438Z,20.47
2018-07-13T05:33:27.598Z,17.57
2018-07-13T05:35:55.734Z,19.30
2018-07-13T05:38:23.887Z,18.70
2018-07-13T05:40:52.020Z,21.97
2018-07-13T05:43:20.167Z,22.20
2018-07-13T05:45:48.389Z,25.97
2018-07-13T05:48:16.548Z,23.37
2018-07-13T05:50:44.746Z,21.50
2018-07-13T05:53:12.911Z,20.60
2018-07-13T05:55:41.158Z,20.23
2018-07-13T05:58:09.362Z,22.00
2018-07-13T06:00:38.803Z,16.70
2018-07-13T06:03:07.017Z,20.40
2018-07-13T06:05:35.434Z,18.53
2018-07-13T06:08:03.436Z,20.23
2018-07-13T06:10:31.654Z,25.13
2018-07-13T06:12:59.915Z,27.30
2018-07-13T06:15:28.117Z,24.97
2018-07-13T06:17:56.322Z,24.83
2018-07-13T06:20:25.106Z,23.57
2018-07-13T06:22:53.301Z,28.43
2018-07-13T06:25:21.602Z,20.77
2018-07-13T06:27:49.797Z,21.60
2018-07-13T06:30:18.076Z,22.50
2018-07-13T06:32:46.254Z,28.27
2018-07-13T06:35:14.470Z,23.37
2018-07-13T06:37:42.702Z,25.43
2018-07-13T06:40:10.938Z,29.27
2018-07-13T06:42:39.169Z,25.53
2018-07-13T06:45:07.434Z,18.47
2018-07-13T06:47:35.626Z,21.80
2018-07-13T06:50:03.936Z,16.53
2018-07-13T06:52:32.154Z,22.07
2018-07-13T06:55:00.354Z,18.33
2018-07-13T06:57:40.066Z,23.23
2018-07-13T07:00:19.177Z,16.90
2018-07-13T07:02:47.410Z,21.00
2018-07-13T07:06:23.111Z,17.60
2018-07-13T07:08:51.331Z,19.00
2018-07-13T07:11:19.523Z,16.30
2018-07-13T07:13:47.926Z,14.40
2018-07-13T07:16:16.134Z,15.27
2018-07-13T07:18:44.342Z,18.00
2018-07-13T07:21:12.546Z,18.40
2018-07-13T07:23:40.750Z,14.53
2018-07-13T07:26:09.014Z,17.53
2018-07-13T07:28:37.253Z,14.10
2018-07-13T07:31:05.437Z,17.77
2018-07-13T07:33:33.641Z,16.70
2018-07-13T07:36:01.843Z,19.20
2018-07-13T07:38:30.106Z,15.60
2018-07-13T07:40:58.295Z,13.37
2018-07-13T07:43:26.503Z,15.17
2018-07-13T07:45:54.778Z,22.90
2018-07-13T07:48:23.011Z,24.43
2018-07-13T07:50:51.195Z,16.53
2018-07-13T07:53:19.418Z,20.23
2018-07-13T07:55:47.610Z,19.20
2018-07-13T07:58:15.893Z,15.30
2018-07-13T08:00:44.202Z,16.33
2018-07-13T08:03:12.397Z,18.20
2018-07-13T08:05:40.664Z,11.27
2018-07-13T08:08:08.891Z,21.73
2018-07-13T08:10:37.183Z,13.07
2018-07-13T08:13:05.698Z,11.33
2018-07-13T08:15:33.900Z,13.30
2018-07-13T08:18:02.095Z,12.73
2018-07-13T08:20:32.215Z,11.77
2018-07-13T08:23:02.127Z,13.20
2018-07-13T08:25:30.742Z,17.43
2018-07-13T08:28:01.022Z,13.87
2018-07-13T08:30:35.662Z,15.13
2018-07-13T08:33:03.853Z,11.47
2018-07-13T08:35:32.127Z,16.20
2018-07-13T08:38:00.067Z,15.93
2018-07-13T08:40:28.278Z,11.67
2018-07-13T08:42:56.518Z,14.53
2018-07-13T08:45:24.734Z,15.83
2018-07-13T08:47:53.516Z,16.57
2018-07-13T08:50:21.556Z,13.43
2018-07-13T08:52:49.693Z,13.80
2018-07-13T08:55:17.846Z,17.57
2018-07-13T08:57:47.301Z,14.50
2018-07-13T09:00:15.514Z,15.60
2018-07-13T09:02:43.713Z,14.43
2018-07-13T09:05:11.858Z,16.40
2018-07-13T09:07:40.326Z,16.87
2018-07-13T09:10:09.674Z,14.60
2018-07-13T09:12:38.245Z,12.30
2018-07-13T09:15:07.187Z,15.30
2018-07-13T09:17:35.333Z,11.70
2018-07-13T09:20:03.654Z,14.63
2018-07-13T09:22:31.879Z,17.43
2018-07-13T09:25:00.039Z,15.20
2018-07-13T09:27:28.234Z,16.50
2018-07-13T09:29:56.370Z,12.97
2018-07-13T09:32:25.914Z,11.90
2018-07-13T09:34:54.062Z,12.80
2018-07-13T09:37:22.599Z,14.60
2018-07-13T09:39:50.792Z,15.03
2018-07-13T09:42:18.917Z,11.03
2018-07-13T09:44:47.063Z,10.60
2018-07-13T09:47:15.198Z,10.27
2018-07-13T09:49:43.359Z,11.77
2018-07-13T09:52:11.502Z,12.60
2018-07-13T09:54:39.645Z,8.83
2018-07-13T09:57:07.802Z,11.27
2018-07-13T09:59:35.948Z,9.30
2018-07-13T10:02:04.142Z,11.37
2018-07-13T10:04:32.322Z,11.57
2018-07-13T10:07:00.472Z,10.60
2018-07-13T10:09:28.615Z,16.10
2018-07-13T10:11:56.766Z,8.50
2018-07-13T10:14:25.017Z,7.50
2018-07-13T10:16:53.243Z,11.70
2018-07-13T10:19:21.393Z,10.10
2018-07-13T10:21:49.798Z,8.43
2018-07-13T10:24:19.362Z,8.30
2018-07-13T10:26:47.795Z,10.03
2018-07-13T10:29:18.850Z,11.70
2018-07-13T10:31:46.962Z,12.70
2018-07-13T10:34:16.378Z,12.03
2018-07-13T10:36:48.450Z,10.30
2018-07-13T10:39:16.625Z,7.13
2018-07-13T10:41:44.779Z,5.60
2018-07-13T10:44:12.915Z,11.50
2018-07-13T10:46:41.097Z,9.07
2018-07-13T10:49:09.263Z,9.07
2018-07-13T10:51:37.450Z,10.57
2018-07-13T10:54:05.546Z,13.50
2018-07-13T10:56:33.746Z,10.93
2018-07-13T10:59:01.957Z,12.60
2018-07-13T11:01:30.155Z,6.10
2018-07-13T11:03:58.334Z,8.23
2018-07-13T11:06:26.535Z,8.77
2018-07-13T11:08:54.727Z,8.80
2018-07-13T11:11:22.924Z,6.80
2018-07-13T11:13:51.621Z,6.70
2018-07-13T11:16:19.826Z,8.53
2018-07-13T11:18:48.037Z,8.03
2018-07-13T11:21:16.218Z,7.53
2018-07-13T11:23:44.510Z,5.77
2018-07-13T11:26:12.788Z,8.70
2018-07-13T11:28:40.965Z,7.70
2018-07-13T11:31:09.163Z,7.20
2018-07-13T11:33:37.358Z,7.10
2018-07-13T11:36:05.566Z,7.70
2018-07-13T11:38:33.767Z,7.60
2018-07-13T11:41:01.970Z,4.80
2018-07-13T11:43:30.162Z,9.53
2018-07-13T11:45:58.376Z,9.60
2018-07-13T11:48:26.570Z,5.70
2018-07-13T11:50:54.767Z,6.03
2018-07-13T11:53:22.946Z,5.77
2018-07-13T11:55:51.181Z,5.90
2018-07-13T11:58:19.367Z,5.83
2018-07-13T12:00:47.567Z,5.33
2018-07-13T12:03:15.794Z,5.03
2018-07-13T12:05:44.038Z,6.03
2018-07-13T12:08:12.218Z,6.17
2018-07-13T12:10:40.414Z,4.30
2018-07-13T12:13:08.614Z,4.70
2018-07-13T12:15:36.817Z,5.00
2018-07-13T12:18:05.170Z,6.93
2018-07-13T12:20:33.320Z,5.90
2018-07-13T12:23:01.509Z,7.00
2018-07-13T12:25:29.714Z,7.30
2018-07-13T12:27:57.943Z,5.90
2018-07-13T12:30:26.159Z,4.87
2018-07-13T12:32:54.367Z,7.00
2018-07-13T12:35:22.546Z,5.37
2018-07-13T12:37:50.505Z,5.73
2018-07-13T12:40:18.696Z,6.67
2018-07-13T12:42:46.970Z,8.57
2018-07-13T12:45:15.179Z,5.17
2018-07-13T12:47:43.362Z,6.03
2018-07-13T12:50:11.551Z,7.53
2018-07-13T12:52:39.758Z,7.50
2018-07-13T12:55:07.989Z,5.77
2018-07-13T12:57:36.155Z,9.83
2018-07-13T13:00:04.278Z,5.30
2018-07-13T13:02:32.556Z,10.40
2018-07-13T13:05:00.691Z,6.63
2018-07-13T13:07:28.833Z,5.70
2018-07-13T13:09:56.954Z,6.43
2018-07-13T13:12:25.090Z,4.23
2018-07-13T13:14:53.230Z,4.70
2018-07-13T13:17:21.391Z,5.60
2018-07-13T13:19:49.535Z,5.20
2018-07-13T13:22:17.675Z,7.50
2018-07-13T13:24:45.798Z,11.07
2018-07-13T13:27:13.951Z,10.30
2018-07-13T13:29:42.088Z,9.20
2018-07-13T13:32:10.222Z,8.10
2018-07-13T13:34:38.377Z,4.30
2018-07-13T13:37:06.518Z,8.93
2018-07-13T13:39:34.666Z,5.37
2018-07-13T13:42:02.811Z,5.10
2018-07-13T13:44:30.954Z,7.07
2018-07-13T13:46:59.098Z,6.67
2018-07-13T13:49:27.238Z,4.67
2018-07-13T13:51:55.382Z,6.00
2018-07-13T13:54:23.516Z,6.47
2018-07-13T13:56:51.762Z,6.43
2018-07-13T13:59:19.977Z,5.07
2018-07-13T14:01:48.182Z,7.40
2018-07-13T14:04:16.378Z,4.53
2018-07-13T14:06:44.589Z,5.63
2018-07-13T14:09:12.830Z,6.80
2018-07-13T14:11:40.993Z,7.47
2018-07-13T14:14:09.194Z,4.40
2018-07-13T14:16:37.417Z,5.20
2018-07-13T14:19:05.668Z,3.83
2018-07-13T14:21:33.879Z,4.27
2018-07-13T14:24:02.082Z,4.93
2018-07-13T14:26:30.350Z,4.33
2018-07-13T14:28:58.579Z,4.07
2018-07-13T14:31:26.774Z,4.33
2018-07-13T14:33:54.975Z,5.20
2018-07-13T14:36:23.158Z,5.43
2018-07-13T14:38:51.378Z,4.13
2018-07-13T14:41:19.593Z,9.90
2018-07-13T14:43:47.831Z,4.43
2018-07-13T14:46:17.220Z,7.27
2018-07-13T14:48:45.164Z,5.10
2018-07-13T14:51:13.354Z,5.23
2018-07-13T14:53:41.293Z,3.07
2018-07-13T14:56:09.459Z,3.83
2018-07-13T14:58:37.702Z,4.33
2018-07-13T15:01:05.897Z,3.50
2018-07-13T15:03:34.079Z,4.63
2018-07-13T15:06:02.326Z,5.83
2018-07-13T15:08:30.381Z,6.90
2018-07-13T15:10:58.540Z,8.10
2018-07-13T15:13:26.702Z,5.17
2018-07-13T15:15:54.829Z,3.77
2018-07-13T15:18:23.035Z,5.70
2018-07-13T15:20:51.154Z,6.07
2018-07-13T15:23:19.325Z,4.17
2018-07-13T15:25:47.482Z,6.47
2018-07-13T15:28:15.630Z,5.03
2018-07-13T15:30:43.824Z,5.13
2018-07-13T15:33:11.966Z,7.00
2018-07-13T15:35:40.181Z,5.60
2018-07-13T15:38:08.333Z,4.53
2018-07-13T15:40:36.465Z,6.60
2018-07-13T15:43:04.614Z,5.20
2018-07-13T15:45:32.773Z,4.80
2018-07-13T15:48:00.965Z,7.27
2018-07-13T15:50:29.098Z,6.37
2018-07-13T15:52:57.250Z,7.60
2018-07-13T15:55:29.679Z,5.30
2018-07-13T15:57:57.874Z,5.23
2018-07-13T16:00:26.125Z,8.13
2018-07-13T16:02:54.331Z,5.50
2018-07-13T16:05:22.719Z,4.93
2018-07-13T16:07:50.723Z,5.33
2018-07-13T16:10:19.180Z,5.20
2018-07-13T16:12:47.386Z,6.37
2018-07-13T16:15:15.590Z,8.70
2018-07-13T16:17:43.783Z,8.50
2018-07-13T16:20:11.987Z,5.77
2018-07-13T16:22:40.178Z,8.50
2018-07-13T16:25:08.399Z,12.80
2018-07-13T16:27:36.628Z,7.77
2018-07-13T16:30:04.852Z,6.57
2018-07-13T16:32:33.546Z,4.23
2018-07-13T16:35:01.743Z,4.63
2018-07-13T16:37:29.932Z,3.87
2018-07-13T16:39:58.198Z,6.00
2018-07-13T16:42:26.398Z,5.03
2018-07-13T16:44:54.656Z,5.63
2018-07-13T16:47:22.803Z,8.73
2018-07-13T16:49:51.022Z,4.87
2018-07-13T16:52:19.245Z,5.87
2018-07-13T16:54:47.474Z,5.93
2018-07-13T16:57:15.816Z,7.03
2018-07-13T16:59:43.999Z,8.10
2018-07-13T17:02:12.208Z,5.53
2018-07-13T17:04:40.506Z,5.97
2018-07-13T17:07:08.718Z,5.77
2018-07-13T17:09:36.918Z,6.60
2018-07-13T17:12:05.122Z,6.40
2018-07-13T17:14:33.305Z,6.90
2018-07-13T17:17:01.498Z,5.90
2018-07-13T17:19:29.703Z,6.50
2018-07-13T17:21:57.942Z,5.90
2018-07-13T17:24:25.949Z,5.13
2018-07-13T17:26:54.146Z,10.13
2018-07-13T17:29:22.574Z,5.00
2018-07-13T17:31:50.824Z,6.33
2018-07-13T17:34:19.030Z,5.03
2018-07-13T17:36:47.230Z,7.20
2018-07-13T17:39:15.434Z,5.03
2018-07-13T17:41:43.622Z,6.57
2018-07-13T17:44:11.825Z,4.53
2018-07-13T17:46:40.017Z,5.93
2018-07-13T17:49:08.225Z,5.40
2018-07-13T17:51:36.426Z,5.57
2018-07-13T17:54:04.671Z,6.47
2018-07-13T17:56:32.890Z,6.07
2018-07-13T17:59:01.082Z,5.50
2018-07-13T18:01:29.314Z,5.60
2018-07-13T18:03:57.270Z,5.60
2018-07-13T18:06:25.467Z,5.27
2018-07-13T18:08:53.793Z,4.87
2018-07-13T18:11:22.090Z,5.10
2018-07-13T18:13:50.335Z,5.73
2018-07-13T18:16:18.588Z,5.07
2018-07-13T18:18:46.784Z,6.03
2018-07-13T18:21:15.031Z,5.20
2018-07-13T18:23:43.243Z,5.10
2018-07-13T18:26:11.694Z,5.00
2018-07-13T18:28:39.918Z,7.90
2018-07-13T18:31:08.343Z,4.27
2018-07-13T18:33:36.528Z,5.13
2018-07-13T18:36:04.857Z,6.13
2018-07-13T18:38:33.053Z,4.40
2018-07-13T18:41:01.251Z,4.63
2018-07-13T18:43:29.583Z,5.40
2018-07-13T18:45:57.770Z,6.80
2018-07-13T18:48:25.962Z,4.87
2018-07-13T18:50:54.167Z,5.70
2018-07-13T18:53:22.310Z,5.03
2018-07-13T18:55:50.518Z,6.80
2018-07-13T18:58:18.642Z,5.20
2018-07-13T19:00:46.838Z,7.47
2018-07-13T19:03:14.983Z,5.77
2018-07-13T19:05:43.126Z,8.60
2018-07-13T19:08:11.266Z,5.10
2018-07-13T19:10:39.427Z,4.53
2018-07-13T19:13:07.555Z,6.30
2018-07-13T19:15:35.715Z,5.10
2018-07-13T19:18:03.859Z,5.60
2018-07-13T19:20:32.022Z,8.70
2018-07-13T19:23:00.242Z,6.53
2018-07-13T19:25:28.390Z,8.33
2018-07-13T19:27:56.812Z,5.13
2018-07-13T19:30:24.981Z,5.73
2018-07-13T19:32:53.093Z,6.97
2018-07-13T19:35:21.234Z,7.53
2018-07-13T19:37:49.382Z,5.87
2018-07-13T19:40:17.542Z,5.40
2018-07-13T19:42:45.670Z,5.83
2018-07-13T19:45:13.814Z,9.10
2018-07-13T19:47:42.062Z,4.93
2018-07-13T19:50:10.038Z,6.07
2018-07-13T19:52:38.177Z,6.23
2018-07-13T19:55:06.343Z,7.37
2018-07-13T19:57:34.663Z,5.00
2018-07-13T20:00:02.891Z,5.83
2018-07-13T20:02:31.075Z,5.70
2018-07-13T20:04:59.329Z,7.37
2018-07-13T20:07:27.517Z,12.37
2018-07-13T20:09:55.723Z,5.30
2018-07-13T20:12:23.927Z,8.47
2018-07-13T20:14:52.109Z,8.93
2018-07-13T20:17:20.334Z,14.30
2018-07-13T20:19:48.573Z,6.33
2018-07-13T20:22:16.843Z,7.47
2018-07-13T20:24:45.070Z,10.37
2018-07-13T20:27:13.250Z,5.40
2018-07-13T20:29:41.443Z,9.60
2018-07-13T20:32:09.665Z,8.73
2018-07-13T20:34:37.593Z,6.50
2018-07-13T20:37:05.818Z,7.53
2018-07-13T20:39:34.028Z,8.63
2018-07-13T20:42:02.282Z,7.77
2018-07-13T20:44:30.501Z,5.80
2018-07-13T20:49:50.870Z,6.90
2018-07-13T20:52:19.022Z,6.97
2018-07-13T20:54:47.175Z,10.20
2018-07-13T20:57:15.330Z,5.40
2018-07-13T20:59:43.483Z,5.57
2018-07-13T21:02:11.697Z,6.40
2018-07-13T21:04:39.805Z,5.97
2018-07-13T21:07:08.200Z,6.60
2018-07-13T21:09:36.441Z,7.63
2018-07-13T21:12:04.653Z,6.40
2018-07-13T21:14:32.922Z,9.13
2018-07-13T21:17:01.095Z,6.17
2018-07-13T21:19:29.442Z,6.53
2018-07-13T21:21:57.599Z,8.07
2018-07-13T21:24:25.751Z,6.13
2018-07-13T21:26:54.039Z,6.00
2018-07-13T21:29:22.113Z,6.23
2018-07-13T21:31:50.319Z,5.83
2018-07-13T21:34:18.502Z,9.20
2018-07-13T21:36:46.647Z,6.77
2018-07-13T21:39:14.794Z,6.20
2018-07-13T21:41:42.949Z,8.27
2018-07-13T21:44:11.213Z,6.37
2018-07-13T21:46:39.363Z,7.40
2018-07-13T21:49:07.570Z,9.90
2018-07-13T21:51:35.725Z,6.10
2018-07-13T21:54:03.670Z,6.40
2018-07-13T21:56:31.827Z,7.30
2018-07-13T21:58:59.996Z,7.20
2018-07-13T22:01:28.156Z,7.80
2018-07-13T22:03:56.326Z,8.07
2018-07-13T22:06:24.486Z,7.73
2018-07-13T22:08:52.640Z,9.40
2018-07-13T22:11:20.782Z,7.30
2018-07-13T22:13:49.107Z,10.57
2018-07-13T22:16:17.506Z,7.20
2018-07-13T22:18:45.676Z,7.00
2018-07-13T22:21:13.814Z,9.33
2018-07-13T22:23:41.961Z,7.10
2018-07-13T22:26:10.118Z,9.23
2018-07-13T22:28:38.307Z,7.07
2018-07-13T22:31:06.507Z,8.60
2018-07-13T22:33:34.586Z,9.40
2018-07-13T22:36:02.734Z,7.57
2018-07-13T22:38:30.922Z,7.43
2018-07-13T22:40:59.267Z,6.70
2018-07-13T22:43:27.518Z,6.20
2018-07-13T22:45:55.710Z,7.13
2018-07-13T22:48:23.858Z,11.20
2018-07-13T22:50:52.086Z,8.13
2018-07-13T22:53:20.078Z,9.03
2018-07-13T22:55:48.230Z,8.20
2018-07-13T22:58:16.390Z,8.27
2018-07-13T23:00:44.567Z,6.97
2018-07-13T23:03:12.725Z,6.93
2018-07-13T23:05:40.870Z,7.37
2018-07-13T23:08:09.006Z,8.97
2018-07-13T23:10:37.207Z,8.37
2018-07-13T23:13:05.363Z,8.03
2018-07-13T23:15:33.498Z,7.90
2018-07-13T23:18:02.512Z,6.63
2018-07-13T23:20:30.665Z,10.93
2018-07-13T23:22:58.835Z,7.93
2018-07-13T23:25:26.998Z,10.23
2018-07-13T23:27:55.146Z,9.23
2018-07-13T23:30:23.289Z,6.93
2018-07-13T23:32:51.443Z,10.60
2018-07-13T23:35:19.613Z,7.40
2018-07-13T23:37:47.790Z,7.60
2018-07-13T23:40:16.052Z,7.10
2018-07-13T23:42:44.202Z,9.03
2018-07-13T23:45:12.358Z,6.73
2018-07-13T23:47:40.569Z,7.80
2018-07-13T23:50:08.766Z,8.70
2018-07-13T23:52:36.938Z,14.53
2018-07-13T23:55:04.886Z,7.70
2018-07-13T23:57:33.074Z,9.53
